首页
METAR-TAF:

METAR-TAF

机场 :

大不里士, 伊朗

纬度: 38-05N, 经度: 046-17E, 海拔: 1367米

当前天气观测

该预报发布于22分钟前的00:30 UTC
风速6节,风向东北
温度 0°C
湿度 93%
气压 1020 hPa
能見度: 8000
少量云层高于4000英尺
散云层高于18000英尺

METAR: OITT 110030Z 05006KT 8000 FEW040 SCT180 M00/M01 Q1020 A3013

时间: 04:22 (00:52 UTC)

预报

该预报发布于1小时和52分钟前的23:00 UTC
预报有效从11日的 00点(UTC)到 12日的 06点(UTC)
风速8节,风向东北
能見度: 5000
多云层高于1000英尺
少量云层高于3000英尺
轻雾
几率 40%
从 11日的 00点(UTC)到 11日的 03点(UTC)
能見度: 1500
多云层高于1000英尺
轻雾
成为
从 11日的 05点(UTC)到 11日的 06点(UTC)
能見度: 6000
少量云层高于3500英尺
散云层高于10000英尺
短暂存在
从 11日的 09点(UTC)到 11日的 18点(UTC)
风速14节,风向西转西南,有时为23节阵风
几率 40%
从 11日的 21点(UTC)到 12日的 04点(UTC)
能見度: 4000
多云层高于1000英尺
轻雾

TAF: OITT 102300Z 1100/1206 05004MPS 5000 BR BKN010 FEW030 PROB40 1100/1103 1500 BR BKN010 BECMG 1105/1106 6000 FEW035 SCT100 TEMPO 1109/1118 24007G12MPS PROB40 1121/1204 4000 BR BKN010

超过4000个机场的气象观测和天气预报(METAR&TAF报告)。

可查询的气象台以黄色和红色小点在地图上表示。

将鼠标移到小点上方,可查看气象台名称。

然后点击查看天气观测和预报。

如需切换地图:点击带黑十字的绿色按钮放大地图;点击带横线的绿色按钮缩小地图;或者点击绿色箭头查看邻近地区的地图。


METAR-TAF: